sensor_id;sensor_type;location;lat;lon;timestamp;temperature;humidity
770;DHT22;368;48.698;9.116;2023-05-10T00:02:02;13.20;99.90
770;DHT22;368;48.698;9.116;2023-05-10T00:04:29;13.40;99.90
770;DHT22;368;48.698;9.116;2023-05-10T00:06:57;13.00;99.90
770;DHT22;368;48.698;9.116;2023-05-10T00:09:24;13.20;99.90
770;DHT22;368;48.698;9.116;2023-05-10T00:11:51;13.10;99.90
770;DHT22;368;48.698;9.116;2023-05-10T00:14:19;13.10;99.90
770;DHT22;368;48.698;9.116;2023-05-10T00:16:46;12.90;99.90
770;DHT22;368;48.698;9.116;2023-05-10T00:19:12;13.00;99.90
770;DHT22;368;48.698;9.116;2023-05-10T00:21:39;12.70;99.90
770;DHT22;368;48.698;9.116;2023-05-10T00:24:07;13.00;99.90
770;DHT22;368;48.698;9.116;2023-05-10T00:26:34;12.90;99.90
770;DHT22;368;48.698;9.116;2023-05-10T00:29:01;12.80;99.90
770;DHT22;368;48.698;9.116;2023-05-10T00:31:29;12.60;99.90
770;DHT22;368;48.698;9.116;2023-05-10T00:33:55;12.70;99.90
770;DHT22;368;48.698;9.116;2023-05-10T00:36:22;12.60;99.90
770;DHT22;368;48.698;9.116;2023-05-10T00:38:49;12.70;99.90
770;DHT22;368;48.698;9.116;2023-05-10T00:41:18;12.40;99.90
770;DHT22;368;48.698;9.116;2023-05-10T00:43:47;12.60;99.90
770;DHT22;368;48.698;9.116;2023-05-10T00:46:15;12.40;99.90
770;DHT22;368;48.698;9.116;2023-05-10T00:48:43;12.30;99.90
770;DHT22;368;48.698;9.116;2023-05-10T00:51:10;12.50;99.90
770;DHT22;368;48.698;9.116;2023-05-10T00:53:37;12.40;99.90
770;DHT22;368;48.698;9.116;2023-05-10T00:56:04;12.40;99.90
770;DHT22;368;48.698;9.116;2023-05-10T00:58:33;12.20;99.90
770;DHT22;368;48.698;9.116;2023-05-10T01:01:01;12.30;99.90
770;DHT22;368;48.698;9.116;2023-05-10T01:03:29;12.30;99.90
770;DHT22;368;48.698;9.116;2023-05-10T01:05:56;12.30;99.90
770;DHT22;368;48.698;9.116;2023-05-10T01:08:24;12.50;99.90
770;DHT22;368;48.698;9.116;2023-05-10T01:10:52;12.20;99.90
770;DHT22;368;48.698;9.116;2023-05-10T01:13:31;12.20;99.90
770;DHT22;368;48.698;9.116;2023-05-10T01:16:00;12.20;99.90
770;DHT22;368;48.698;9.116;2023-05-10T01:18:29;12.10;99.90
770;DHT22;368;48.698;9.116;2023-05-10T01:21:10;12.10;99.90
770;DHT22;368;48.698;9.116;2023-05-10T01:27:17;12.20;99.90
770;DHT22;368;48.698;9.116;2023-05-10T01:32:56;12.10;99.90
770;DHT22;368;48.698;9.116;2023-05-10T01:35:31;12.10;99.90
770;DHT22;368;48.698;9.116;2023-05-10T01:38:04;12.30;99.90
770;DHT22;368;48.698;9.116;2023-05-10T01:40:37;12.00;99.90
770;DHT22;368;48.698;9.116;2023-05-10T01:43:16;12.20;99.90
770;DHT22;368;48.698;9.116;2023-05-10T01:45:50;12.10;99.90
770;DHT22;368;48.698;9.116;2023-05-10T01:48:23;12.20;99.90
770;DHT22;368;48.698;9.116;2023-05-10T01:50:51;12.30;99.90
770;DHT22;368;48.698;9.116;2023-05-10T01:53:19;12.10;99.90
770;DHT22;368;48.698;9.116;2023-05-10T01:55:52;12.10;99.90
770;DHT22;368;48.698;9.116;2023-05-10T01:58:23;12.00;99.90
770;DHT22;368;48.698;9.116;2023-05-10T02:00:52;12.20;99.90
770;DHT22;368;48.698;9.116;2023-05-10T02:03:23;12.20;99.90
770;DHT22;368;48.698;9.116;2023-05-10T02:05:52;12.00;99.90
770;DHT22;368;48.698;9.116;2023-05-10T02:08:22;12.10;99.90
770;DHT22;368;48.698;9.116;2023-05-10T02:10:51;12.10;99.90
770;DHT22;368;48.698;9.116;2023-05-10T02:13:19;12.00;99.90
770;DHT22;368;48.698;9.116;2023-05-10T02:15:48;12.00;99.90
770;DHT22;368;48.698;9.116;2023-05-10T02:18:17;12.10;99.90
770;DHT22;368;48.698;9.116;2023-05-10T02:20:46;12.10;99.90
770;DHT22;368;48.698;9.116;2023-05-10T02:23:14;12.10;99.90
770;DHT22;368;48.698;9.116;2023-05-10T02:25:43;12.30;99.90
770;DHT22;368;48.698;9.116;2023-05-10T02:28:11;12.00;99.90
770;DHT22;368;48.698;9.116;2023-05-10T02:30:41;11.90;99.90
770;DHT22;368;48.698;9.116;2023-05-10T02:33:08;12.00;99.90
770;DHT22;368;48.698;9.116;2023-05-10T02:35:36;11.80;99.90
770;DHT22;368;48.698;9.116;2023-05-10T02:38:06;11.80;99.90
770;DHT22;368;48.698;9.116;2023-05-10T02:40:35;11.90;99.90
770;DHT22;368;48.698;9.116;2023-05-10T02:43:04;12.00;99.90
770;DHT22;368;48.698;9.116;2023-05-10T02:45:34;12.00;99.90
770;DHT22;368;48.698;9.116;2023-05-10T02:48:02;11.80;99.90
770;DHT22;368;48.698;9.116;2023-05-10T02:50:30;12.00;99.90
770;DHT22;368;48.698;9.116;2023-05-10T02:53:01;12.00;99.90
770;DHT22;368;48.698;9.116;2023-05-10T02:55:35;11.80;99.90
770;DHT22;368;48.698;9.116;2023-05-10T02:58:04;11.90;99.90
770;DHT22;368;48.698;9.116;2023-05-10T03:00:31;11.90;99.90
770;DHT22;368;48.698;9.116;2023-05-10T03:02:58;11.70;99.90
770;DHT22;368;48.698;9.116;2023-05-10T03:05:25;11.80;99.90
770;DHT22;368;48.698;9.116;2023-05-10T03:07:52;12.00;99.90
770;DHT22;368;48.698;9.116;2023-05-10T03:10:21;11.80;99.90
770;DHT22;368;48.698;9.116;2023-05-10T03:13:01;11.80;99.90
770;DHT22;368;48.698;9.116;2023-05-10T03:15:40;11.60;99.90
770;DHT22;368;48.698;9.116;2023-05-10T03:18:13;11.90;99.90
770;DHT22;368;48.698;9.116;2023-05-10T03:20:43;11.70;99.90
770;DHT22;368;48.698;9.116;2023-05-10T03:23:13;11.90;99.90
770;DHT22;368;48.698;9.116;2023-05-10T03:25:41;11.90;99.90
770;DHT22;368;48.698;9.116;2023-05-10T03:28:11;11.70;99.90
770;DHT22;368;48.698;9.116;2023-05-10T03:30:39;11.90;99.90
770;DHT22;368;48.698;9.116;2023-05-10T03:33:07;12.00;99.90
770;DHT22;368;48.698;9.116;2023-05-10T03:35:34;12.00;99.90
770;DHT22;368;48.698;9.116;2023-05-10T03:38:01;11.80;99.90
770;DHT22;368;48.698;9.116;2023-05-10T03:40:29;12.00;99.90
770;DHT22;368;48.698;9.116;2023-05-10T03:42:57;11.80;99.90
770;DHT22;368;48.698;9.116;2023-05-10T03:45:25;11.80;99.90
770;DHT22;368;48.698;9.116;2023-05-10T03:47:52;11.90;99.90
770;DHT22;368;48.698;9.116;2023-05-10T03:50:20;11.70;99.90
770;DHT22;368;48.698;9.116;2023-05-10T03:52:47;12.00;99.90
770;DHT22;368;48.698;9.116;2023-05-10T03:55:14;12.00;99.90
770;DHT22;368;48.698;9.116;2023-05-10T03:57:41;12.10;99.90
770;DHT22;368;48.698;9.116;2023-05-10T04:00:09;12.10;99.90
770;DHT22;368;48.698;9.116;2023-05-10T04:02:37;12.00;99.90
770;DHT22;368;48.698;9.116;2023-05-10T04:05:05;11.80;99.90
770;DHT22;368;48.698;9.116;2023-05-10T04:07:31;11.70;99.90
770;DHT22;368;48.698;9.116;2023-05-10T04:09:58;11.70;99.90
770;DHT22;368;48.698;9.116;2023-05-10T04:12:26;11.70;99.90
770;DHT22;368;48.698;9.116;2023-05-10T04:14:53;11.70;99.90
770;DHT22;368;48.698;9.116;2023-05-10T04:17:20;12.00;99.90
770;DHT22;368;48.698;9.116;2023-05-10T04:19:48;11.80;99.90
770;DHT22;368;48.698;9.116;2023-05-10T04:22:15;11.90;99.90
770;DHT22;368;48.698;9.116;2023-05-10T04:24:41;11.80;99.90
770;DHT22;368;48.698;9.116;2023-05-10T04:27:08;11.80;99.90
770;DHT22;368;48.698;9.116;2023-05-10T04:29:36;11.90;99.90
770;DHT22;368;48.698;9.116;2023-05-10T04:32:04;11.80;99.90
770;DHT22;368;48.698;9.116;2023-05-10T04:34:31;11.80;99.90
770;DHT22;368;48.698;9.116;2023-05-10T04:37:00;11.90;99.90
770;DHT22;368;48.698;9.116;2023-05-10T04:39:27;11.90;99.90
770;DHT22;368;48.698;9.116;2023-05-10T04:41:55;12.10;99.90
770;DHT22;368;48.698;9.116;2023-05-10T04:44:22;11.90;99.90
770;DHT22;368;48.698;9.116;2023-05-10T04:46:49;12.00;99.90
770;DHT22;368;48.698;9.116;2023-05-10T04:49:16;12.00;99.90
770;DHT22;368;48.698;9.116;2023-05-10T04:51:44;12.20;99.90
770;DHT22;368;48.698;9.116;2023-05-10T04:54:12;12.10;99.90
770;DHT22;368;48.698;9.116;2023-05-10T04:56:39;12.30;99.90
770;DHT22;368;48.698;9.116;2023-05-10T04:59:06;11.80;99.90
770;DHT22;368;48.698;9.116;2023-05-10T05:01:33;12.10;99.90
770;DHT22;368;48.698;9.116;2023-05-10T05:04:00;12.20;99.90
770;DHT22;368;48.698;9.116;2023-05-10T05:06:26;12.20;99.90
770;DHT22;368;48.698;9.116;2023-05-10T05:08:53;12.20;99.90
770;DHT22;368;48.698;9.116;2023-05-10T05:11:21;12.10;99.90
770;DHT22;368;48.698;9.116;2023-05-10T05:13:48;12.30;99.90
770;DHT22;368;48.698;9.116;2023-05-10T05:16:15;12.30;99.90
770;DHT22;368;48.698;9.116;2023-05-10T05:18:42;12.50;99.90
770;DHT22;368;48.698;9.116;2023-05-10T05:21:15;12.40;99.90
770;DHT22;368;48.698;9.116;2023-05-10T05:23:42;12.50;99.90
770;DHT22;368;48.698;9.116;2023-05-10T05:26:09;12.70;99.90
770;DHT22;368;48.698;9.116;2023-05-10T05:28:39;12.60;99.90
770;DHT22;368;48.698;9.116;2023-05-10T05:31:06;12.50;99.90
770;DHT22;368;48.698;9.116;2023-05-10T05:33:34;12.60;99.90
770;DHT22;368;48.698;9.116;2023-05-10T05:36:01;12.50;99.90
770;DHT22;368;48.698;9.116;2023-05-10T05:38:28;12.70;99.90
770;DHT22;368;48.698;9.116;2023-05-10T05:40:55;12.40;99.90
770;DHT22;368;48.698;9.116;2023-05-10T05:43:22;12.70;99.90
770;DHT22;368;48.698;9.116;2023-05-10T05:45:52;12.60;99.90
770;DHT22;368;48.698;9.116;2023-05-10T05:48:18;12.50;99.90
770;DHT22;368;48.698;9.116;2023-05-10T05:50:45;12.70;99.90
770;DHT22;368;48.698;9.116;2023-05-10T05:53:16;12.80;99.90
770;DHT22;368;48.698;9.116;2023-05-10T05:55:51;12.60;99.90
770;DHT22;368;48.698;9.116;2023-05-10T05:58:19;12.90;99.90
770;DHT22;368;48.698;9.116;2023-05-10T06:00:47;13.00;99.90
770;DHT22;368;48.698;9.116;2023-05-10T06:03:15;12.80;99.90
770;DHT22;368;48.698;9.116;2023-05-10T06:05:42;12.90;99.90
770;DHT22;368;48.698;9.116;2023-05-10T06:08:10;12.90;99.90
770;DHT22;368;48.698;9.116;2023-05-10T06:10:37;13.30;99.90
770;DHT22;368;48.698;9.116;2023-05-10T06:13:05;13.30;99.90
770;DHT22;368;48.698;9.116;2023-05-10T06:15:32;13.10;99.90
770;DHT22;368;48.698;9.116;2023-05-10T06:18:00;13.30;99.90
770;DHT22;368;48.698;9.116;2023-05-10T06:20:29;13.50;99.90
770;DHT22;368;48.698;9.116;2023-05-10T06:22:58;13.50;99.90
770;DHT22;368;48.698;9.116;2023-05-10T06:25:26;13.20;99.90
770;DHT22;368;48.698;9.116;2023-05-10T06:27:52;13.40;99.90
770;DHT22;368;48.698;9.116;2023-05-10T06:30:23;13.60;99.90
770;DHT22;368;48.698;9.116;2023-05-10T06:32:54;13.60;99.90
770;DHT22;368;48.698;9.116;2023-05-10T06:35:22;13.70;99.90
770;DHT22;368;48.698;9.116;2023-05-10T06:37:51;13.70;99.90
770;DHT22;368;48.698;9.116;2023-05-10T06:40:18;13.60;99.90
770;DHT22;368;48.698;9.116;2023-05-10T06:42:45;13.50;99.90
770;DHT22;368;48.698;9.116;2023-05-10T06:45:12;13.60;99.90
770;DHT22;368;48.698;9.116;2023-05-10T06:47:41;13.50;99.90
770;DHT22;368;48.698;9.116;2023-05-10T06:50:10;13.80;99.90
770;DHT22;368;48.698;9.116;2023-05-10T06:52:37;13.70;99.90
770;DHT22;368;48.698;9.116;2023-05-10T06:55:07;13.60;99.90
770;DHT22;368;48.698;9.116;2023-05-10T06:57:34;13.30;99.90
770;DHT22;368;48.698;9.116;2023-05-10T07:00:02;13.50;99.90
770;DHT22;368;48.698;9.116;2023-05-10T07:02:30;13.60;99.90
770;DHT22;368;48.698;9.116;2023-05-10T07:04:58;13.80;99.90
770;DHT22;368;48.698;9.116;2023-05-10T07:07:28;13.60;99.90
770;DHT22;368;48.698;9.116;2023-05-10T07:10:00;14.00;99.90
770;DHT22;368;48.698;9.116;2023-05-10T07:12:30;13.80;99.90
770;DHT22;368;48.698;9.116;2023-05-10T07:14:58;14.10;99.90
770;DHT22;368;48.698;9.116;2023-05-10T07:17:26;14.50;99.90
770;DHT22;368;48.698;9.116;2023-05-10T07:19:53;14.40;99.90
770;DHT22;368;48.698;9.116;2023-05-10T07:22:20;14.70;99.90
770;DHT22;368;48.698;9.116;2023-05-10T07:24:47;14.70;99.90
770;DHT22;368;48.698;9.116;2023-05-10T07:27:14;14.80;99.90
770;DHT22;368;48.698;9.116;2023-05-10T07:29:42;14.90;99.90
770;DHT22;368;48.698;9.116;2023-05-10T07:32:10;14.80;99.90
770;DHT22;368;48.698;9.116;2023-05-10T07:34:37;14.80;99.90
770;DHT22;368;48.698;9.116;2023-05-10T07:37:03;14.70;99.90
770;DHT22;368;48.698;9.116;2023-05-10T07:39:32;14.70;99.90
770;DHT22;368;48.698;9.116;2023-05-10T07:41:59;14.70;99.90
770;DHT22;368;48.698;9.116;2023-05-10T07:44:26;14.80;99.90
770;DHT22;368;48.698;9.116;2023-05-10T07:46:54;14.50;99.90
770;DHT22;368;48.698;9.116;2023-05-10T07:49:21;14.70;99.90
770;DHT22;368;48.698;9.116;2023-05-10T07:51:49;14.40;99.90
770;DHT22;368;48.698;9.116;2023-05-10T07:54:16;14.60;99.90
770;DHT22;368;48.698;9.116;2023-05-10T07:56:43;14.70;99.90
770;DHT22;368;48.698;9.116;2023-05-10T07:59:14;14.80;99.90
770;DHT22;368;48.698;9.116;2023-05-10T08:01:42;14.70;99.90
770;DHT22;368;48.698;9.116;2023-05-10T08:04:10;15.10;99.90
770;DHT22;368;48.698;9.116;2023-05-10T08:06:37;14.70;99.90
770;DHT22;368;48.698;9.116;2023-05-10T08:09:04;14.80;99.90
770;DHT22;368;48.698;9.116;2023-05-10T08:11:30;14.80;99.90
770;DHT22;368;48.698;9.116;2023-05-10T08:13:58;14.70;99.90
770;DHT22;368;48.698;9.116;2023-05-10T08:16:25;14.60;99.90
770;DHT22;368;48.698;9.116;2023-05-10T08:18:54;14.90;99.90
770;DHT22;368;48.698;9.116;2023-05-10T08:21:22;15.00;99.90
770;DHT22;368;48.698;9.116;2023-05-10T08:23:50;15.00;99.90
770;DHT22;368;48.698;9.116;2023-05-10T08:26:18;15.10;99.90
770;DHT22;368;48.698;9.116;2023-05-10T08:28:47;15.20;99.90
770;DHT22;368;48.698;9.116;2023-05-10T08:31:14;15.40;99.90
770;DHT22;368;48.698;9.116;2023-05-10T08:33:41;15.50;99.90
770;DHT22;368;48.698;9.116;2023-05-10T08:36:08;15.60;99.90
770;DHT22;368;48.698;9.116;2023-05-10T08:38:37;15.50;99.90
770;DHT22;368;48.698;9.116;2023-05-10T08:41:06;15.40;99.90
770;DHT22;368;48.698;9.116;2023-05-10T08:43:34;15.50;99.90
770;DHT22;368;48.698;9.116;2023-05-10T08:46:05;15.20;99.90
770;DHT22;368;48.698;9.116;2023-05-10T08:48:34;15.20;99.90
770;DHT22;368;48.698;9.116;2023-05-10T08:51:03;15.40;99.90
770;DHT22;368;48.698;9.116;2023-05-10T08:53:31;15.10;99.90
770;DHT22;368;48.698;9.116;2023-05-10T08:56:03;15.30;99.90
770;DHT22;368;48.698;9.116;2023-05-10T08:58:30;14.90;99.90
770;DHT22;368;48.698;9.116;2023-05-10T09:00:58;15.10;99.90
770;DHT22;368;48.698;9.116;2023-05-10T09:03:25;15.20;99.90
770;DHT22;368;48.698;9.116;2023-05-10T09:05:52;15.40;99.90
770;DHT22;368;48.698;9.116;2023-05-10T09:08:21;15.60;99.90
770;DHT22;368;48.698;9.116;2023-05-10T09:10:51;15.50;99.90
770;DHT22;368;48.698;9.116;2023-05-10T09:13:20;15.70;99.90
770;DHT22;368;48.698;9.116;2023-05-10T09:15:48;15.90;99.90
770;DHT22;368;48.698;9.116;2023-05-10T09:18:15;15.70;99.90
770;DHT22;368;48.698;9.116;2023-05-10T09:20:42;15.90;99.90
770;DHT22;368;48.698;9.116;2023-05-10T09:23:09;15.90;99.90
770;DHT22;368;48.698;9.116;2023-05-10T09:25:36;15.50;99.90
770;DHT22;368;48.698;9.116;2023-05-10T09:28:06;15.50;99.90
770;DHT22;368;48.698;9.116;2023-05-10T09:30:34;15.30;99.90
770;DHT22;368;48.698;9.116;2023-05-10T09:33:02;15.10;99.90
770;DHT22;368;48.698;9.116;2023-05-10T09:35:30;15.40;99.90
770;DHT22;368;48.698;9.116;2023-05-10T09:38:00;15.60;99.90
770;DHT22;368;48.698;9.116;2023-05-10T09:40:29;16.10;99.90
770;DHT22;368;48.698;9.116;2023-05-10T09:42:57;16.00;99.90
770;DHT22;368;48.698;9.116;2023-05-10T09:45:26;15.70;99.90
770;DHT22;368;48.698;9.116;2023-05-10T09:47:55;15.80;99.90
770;DHT22;368;48.698;9.116;2023-05-10T09:50:23;15.80;99.90
770;DHT22;368;48.698;9.116;2023-05-10T09:52:52;16.00;99.90
770;DHT22;368;48.698;9.116;2023-05-10T09:55:21;16.10;99.90
770;DHT22;368;48.698;9.116;2023-05-10T09:57:49;16.00;99.90
770;DHT22;368;48.698;9.116;2023-05-10T10:00:18;16.50;99.90
770;DHT22;368;48.698;9.116;2023-05-10T10:02:47;17.10;99.90
770;DHT22;368;48.698;9.116;2023-05-10T10:05:16;17.40;99.90
770;DHT22;368;48.698;9.116;2023-05-10T10:07:43;17.60;99.90
770;DHT22;368;48.698;9.116;2023-05-10T10:10:11;18.00;99.90
770;DHT22;368;48.698;9.116;2023-05-10T10:12:39;17.80;99.90
770;DHT22;368;48.698;9.116;2023-05-10T10:15:08;17.80;99.90
770;DHT22;368;48.698;9.116;2023-05-10T10:17:36;18.00;99.50
770;DHT22;368;48.698;9.116;2023-05-10T10:20:05;17.90;98.70
770;DHT22;368;48.698;9.116;2023-05-10T10:22:37;18.10;99.00
770;DHT22;368;48.698;9.116;2023-05-10T10:25:05;18.30;98.60
770;DHT22;368;48.698;9.116;2023-05-10T10:27:42;18.60;99.30
770;DHT22;368;48.698;9.116;2023-05-10T10:30:20;18.60;96.60
770;DHT22;368;48.698;9.116;2023-05-10T10:33:09;18.60;97.30
770;DHT22;368;48.698;9.116;2023-05-10T10:35:39;19.30;98.20
770;DHT22;368;48.698;9.116;2023-05-10T10:38:09;19.00;98.70
770;DHT22;368;48.698;9.116;2023-05-10T10:40:36;18.80;94.90
770;DHT22;368;48.698;9.116;2023-05-10T10:43:22;19.20;95.20
770;DHT22;368;48.698;9.116;2023-05-10T10:46:10;19.20;94.60
770;DHT22;368;48.698;9.116;2023-05-10T10:48:39;18.40;95.00
770;DHT22;368;48.698;9.116;2023-05-10T10:51:06;17.40;96.30
770;DHT22;368;48.698;9.116;2023-05-10T10:53:34;17.40;97.80
770;DHT22;368;48.698;9.116;2023-05-10T10:56:08;17.10;97.00
770;DHT22;368;48.698;9.116;2023-05-10T10:58:37;16.80;98.40
770;DHT22;368;48.698;9.116;2023-05-10T11:01:12;16.60;99.20
770;DHT22;368;48.698;9.116;2023-05-10T11:03:40;15.80;97.40
770;DHT22;368;48.698;9.116;2023-05-10T11:06:07;14.60;96.90
770;DHT22;368;48.698;9.116;2023-05-10T11:08:42;14.80;98.50
770;DHT22;368;48.698;9.116;2023-05-10T11:11:14;14.20;98.50
770;DHT22;368;48.698;9.116;2023-05-10T11:13:43;13.90;98.60
770;DHT22;368;48.698;9.116;2023-05-10T11:16:13;13.70;99.90
770;DHT22;368;48.698;9.116;2023-05-10T11:18:40;13.20;99.90
770;DHT22;368;48.698;9.116;2023-05-10T11:21:12;13.30;99.90
770;DHT22;368;48.698;9.116;2023-05-10T11:23:50;13.20;99.90
770;DHT22;368;48.698;9.116;2023-05-10T11:26:18;13.40;99.90
770;DHT22;368;48.698;9.116;2023-05-10T11:28:49;13.40;99.90
770;DHT22;368;48.698;9.116;2023-05-10T11:31:16;13.80;99.90
770;DHT22;368;48.698;9.116;2023-05-10T11:33:44;13.50;99.90
770;DHT22;368;48.698;9.116;2023-05-10T11:36:11;13.80;99.90
770;DHT22;368;48.698;9.116;2023-05-10T11:38:38;14.10;99.90
770;DHT22;368;48.698;9.116;2023-05-10T11:41:08;14.50;99.90
770;DHT22;368;48.698;9.116;2023-05-10T11:43:39;14.10;99.90
770;DHT22;368;48.698;9.116;2023-05-10T11:46:06;14.60;99.90
770;DHT22;368;48.698;9.116;2023-05-10T11:48:34;14.90;99.90
770;DHT22;368;48.698;9.116;2023-05-10T11:51:01;14.80;99.90
770;DHT22;368;48.698;9.116;2023-05-10T11:53:30;15.00;99.90
770;DHT22;368;48.698;9.116;2023-05-10T11:56:03;15.20;99.90
770;DHT22;368;48.698;9.116;2023-05-10T11:58:32;15.70;99.90
770;DHT22;368;48.698;9.116;2023-05-10T12:00:59;15.90;99.90
770;DHT22;368;48.698;9.116;2023-05-10T12:03:27;16.60;99.90
770;DHT22;368;48.698;9.116;2023-05-10T12:05:55;16.40;98.70
770;DHT22;368;48.698;9.116;2023-05-10T12:08:24;17.00;98.90
770;DHT22;368;48.698;9.116;2023-05-10T12:10:51;17.10;98.60
770;DHT22;368;48.698;9.116;2023-05-10T12:13:19;17.20;98.70
770;DHT22;368;48.698;9.116;2023-05-10T12:15:48;17.40;98.00
770;DHT22;368;48.698;9.116;2023-05-10T12:18:21;17.40;98.60
770;DHT22;368;48.698;9.116;2023-05-10T12:20:51;17.20;96.90
770;DHT22;368;48.698;9.116;2023-05-10T12:23:19;16.50;97.30
770;DHT22;368;48.698;9.116;2023-05-10T12:25:46;16.40;98.20
770;DHT22;368;48.698;9.116;2023-05-10T12:28:13;16.70;97.90
770;DHT22;368;48.698;9.116;2023-05-10T12:30:40;16.50;97.90
770;DHT22;368;48.698;9.116;2023-05-10T12:33:10;16.50;98.70
770;DHT22;368;48.698;9.116;2023-05-10T12:35:45;16.10;97.60
770;DHT22;368;48.698;9.116;2023-05-10T12:38:25;16.00;98.70
770;DHT22;368;48.698;9.116;2023-05-10T12:40:56;15.60;98.50
770;DHT22;368;48.698;9.116;2023-05-10T12:43:23;15.60;99.30
770;DHT22;368;48.698;9.116;2023-05-10T12:45:50;15.20;99.10
770;DHT22;368;48.698;9.116;2023-05-10T12:48:19;15.50;97.90
770;DHT22;368;48.698;9.116;2023-05-10T12:50:47;15.50;97.50
770;DHT22;368;48.698;9.116;2023-05-10T12:53:14;15.40;98.40
770;DHT22;368;48.698;9.116;2023-05-10T12:55:42;15.50;97.70
770;DHT22;368;48.698;9.116;2023-05-10T12:58:09;15.50;96.90
770;DHT22;368;48.698;9.116;2023-05-10T13:00:35;15.70;96.30
770;DHT22;368;48.698;9.116;2023-05-10T13:03:03;15.60;96.80
770;DHT22;368;48.698;9.116;2023-05-10T13:05:32;15.80;96.60
770;DHT22;368;48.698;9.116;2023-05-10T13:07:58;15.90;96.30
770;DHT22;368;48.698;9.116;2023-05-10T13:10:25;15.80;96.60
770;DHT22;368;48.698;9.116;2023-05-10T13:12:54;16.20;95.50
770;DHT22;368;48.698;9.116;2023-05-10T13:15:21;16.40;94.40
770;DHT22;368;48.698;9.116;2023-05-10T13:17:48;16.20;95.10
770;DHT22;368;48.698;9.116;2023-05-10T13:20:15;16.10;94.40
770;DHT22;368;48.698;9.116;2023-05-10T13:22:47;16.80;95.60
770;DHT22;368;48.698;9.116;2023-05-10T13:25:15;17.60;94.70
770;DHT22;368;48.698;9.116;2023-05-10T13:27:42;17.90;93.10
770;DHT22;368;48.698;9.116;2023-05-10T13:30:10;17.70;92.90
770;DHT22;368;48.698;9.116;2023-05-10T13:32:38;18.00;93.00
770;DHT22;368;48.698;9.116;2023-05-10T13:35:05;17.90;91.40
770;DHT22;368;48.698;9.116;2023-05-10T13:37:32;17.40;91.20
770;DHT22;368;48.698;9.116;2023-05-10T13:40:02;17.00;92.20
770;DHT22;368;48.698;9.116;2023-05-10T13:42:29;16.90;93.30
770;DHT22;368;48.698;9.116;2023-05-10T13:44:57;16.50;94.20
770;DHT22;368;48.698;9.116;2023-05-10T13:47:24;16.70;94.80
770;DHT22;368;48.698;9.116;2023-05-10T13:49:50;16.30;94.60
770;DHT22;368;48.698;9.116;2023-05-10T13:52:17;16.90;93.90
770;DHT22;368;48.698;9.116;2023-05-10T13:54:44;16.70;94.90
770;DHT22;368;48.698;9.116;2023-05-10T13:57:12;16.90;95.70
770;DHT22;368;48.698;9.116;2023-05-10T13:59:39;17.50;96.00
770;DHT22;368;48.698;9.116;2023-05-10T14:02:06;17.80;93.90
770;DHT22;368;48.698;9.116;2023-05-10T14:04:33;17.50;93.20
770;DHT22;368;48.698;9.116;2023-05-10T14:07:05;17.50;92.90
770;DHT22;368;48.698;9.116;2023-05-10T14:09:31;17.10;93.10
770;DHT22;368;48.698;9.116;2023-05-10T14:11:58;16.80;94.00
770;DHT22;368;48.698;9.116;2023-05-10T14:14:28;17.00;94.20
770;DHT22;368;48.698;9.116;2023-05-10T14:16:55;16.90;93.20
770;DHT22;368;48.698;9.116;2023-05-10T14:19:22;16.80;94.00
770;DHT22;368;48.698;9.116;2023-05-10T14:21:49;16.70;93.30
770;DHT22;368;48.698;9.116;2023-05-10T14:24:17;17.10;94.20
770;DHT22;368;48.698;9.116;2023-05-10T14:26:44;17.20;93.90
770;DHT22;368;48.698;9.116;2023-05-10T14:29:11;17.50;92.70
770;DHT22;368;48.698;9.116;2023-05-10T14:31:40;17.20;92.10
770;DHT22;368;48.698;9.116;2023-05-10T14:34:08;17.10;92.70
770;DHT22;368;48.698;9.116;2023-05-10T14:36:35;17.00;92.40
770;DHT22;368;48.698;9.116;2023-05-10T14:39:02;16.90;92.70
770;DHT22;368;48.698;9.116;2023-05-10T14:41:30;17.10;92.90
770;DHT22;368;48.698;9.116;2023-05-10T14:43:57;17.10;92.40
770;DHT22;368;48.698;9.116;2023-05-10T14:46:24;17.20;92.30
770;DHT22;368;48.698;9.116;2023-05-10T14:48:53;17.20;93.00
770;DHT22;368;48.698;9.116;2023-05-10T14:51:21;17.20;93.20
770;DHT22;368;48.698;9.116;2023-05-10T14:53:51;17.30;94.30
770;DHT22;368;48.698;9.116;2023-05-10T14:56:18;17.30;92.40
770;DHT22;368;48.698;9.116;2023-05-10T14:58:46;17.20;93.20
770;DHT22;368;48.698;9.116;2023-05-10T15:01:13;17.10;94.00
770;DHT22;368;48.698;9.116;2023-05-10T15:03:40;16.80;93.80
770;DHT22;368;48.698;9.116;2023-05-10T15:06:10;16.60;95.10
770;DHT22;368;48.698;9.116;2023-05-10T15:08:37;16.90;94.00
770;DHT22;368;48.698;9.116;2023-05-10T15:11:04;16.60;94.30
770;DHT22;368;48.698;9.116;2023-05-10T15:13:31;16.80;94.90
770;DHT22;368;48.698;9.116;2023-05-10T15:15:58;16.60;94.70
770;DHT22;368;48.698;9.116;2023-05-10T15:18:25;16.50;95.20
770;DHT22;368;48.698;9.116;2023-05-10T15:20:52;16.60;94.00
770;DHT22;368;48.698;9.116;2023-05-10T15:23:20;16.80;94.30
770;DHT22;368;48.698;9.116;2023-05-10T15:25:47;17.10;94.00
770;DHT22;368;48.698;9.116;2023-05-10T15:28:15;17.30;93.90
770;DHT22;368;48.698;9.116;2023-05-10T15:30:42;17.20;94.70
770;DHT22;368;48.698;9.116;2023-05-10T15:33:08;17.00;95.60
770;DHT22;368;48.698;9.116;2023-05-10T15:35:35;17.10;94.90
770;DHT22;368;48.698;9.116;2023-05-10T15:38:03;17.60;94.00
770;DHT22;368;48.698;9.116;2023-05-10T15:40:32;17.30;93.10
770;DHT22;368;48.698;9.116;2023-05-10T15:43:00;17.10;93.30
770;DHT22;368;48.698;9.116;2023-05-10T15:45:27;17.10;94.50
770;DHT22;368;48.698;9.116;2023-05-10T15:47:54;17.30;93.50
770;DHT22;368;48.698;9.116;2023-05-10T15:50:22;17.00;94.90
770;DHT22;368;48.698;9.116;2023-05-10T15:52:49;16.90;94.90
770;DHT22;368;48.698;9.116;2023-05-10T15:55:16;16.80;95.20
770;DHT22;368;48.698;9.116;2023-05-10T15:57:44;17.00;94.40
770;DHT22;368;48.698;9.116;2023-05-10T16:00:12;17.00;94.50
770;DHT22;368;48.698;9.116;2023-05-10T16:02:39;16.50;94.70
770;DHT22;368;48.698;9.116;2023-05-10T16:05:07;16.70;94.10
770;DHT22;368;48.698;9.116;2023-05-10T16:07:34;16.60;95.00
770;DHT22;368;48.698;9.116;2023-05-10T16:10:01;16.60;94.20
770;DHT22;368;48.698;9.116;2023-05-10T16:12:28;16.40;93.60
770;DHT22;368;48.698;9.116;2023-05-10T16:14:57;16.50;94.60
770;DHT22;368;48.698;9.116;2023-05-10T16:17:24;16.60;93.80
770;DHT22;368;48.698;9.116;2023-05-10T16:19:51;16.40;94.50
770;DHT22;368;48.698;9.116;2023-05-10T16:22:17;16.20;95.60
770;DHT22;368;48.698;9.116;2023-05-10T16:24:46;15.80;97.00
770;DHT22;368;48.698;9.116;2023-05-10T16:27:13;16.30;94.80
770;DHT22;368;48.698;9.116;2023-05-10T16:29:40;16.20;94.90
770;DHT22;368;48.698;9.116;2023-05-10T16:32:10;16.30;95.40
770;DHT22;368;48.698;9.116;2023-05-10T16:34:37;16.40;94.40
770;DHT22;368;48.698;9.116;2023-05-10T16:37:04;16.10;95.00
770;DHT22;368;48.698;9.116;2023-05-10T16:39:31;16.10;94.90
770;DHT22;368;48.698;9.116;2023-05-10T16:41:58;16.10;96.10
770;DHT22;368;48.698;9.116;2023-05-10T16:44:25;15.90;95.70
770;DHT22;368;48.698;9.116;2023-05-10T16:46:52;15.90;96.80
770;DHT22;368;48.698;9.116;2023-05-10T16:49:22;15.80;97.30